sensor_id;sensor_type;location;lat;lon;timestamp;P1;durP1;ratioP1;P2;durP2;ratioP2
43429;SDS011;29028;43.234;27.896;2022-11-20T05:02:33;11.27;;;3.50;;
43429;SDS011;29028;43.234;27.896;2022-11-20T05:02:54;10.17;;;3.47;;
43429;SDS011;29028;43.234;27.896;2022-11-20T05:03:14;8.88;;;3.55;;
43429;SDS011;29028;43.234;27.896;2022-11-20T05:03:35;12.35;;;3.75;;
43429;SDS011;29028;43.234;27.896;2022-11-20T05:03:57;12.52;;;4.05;;
43429;SDS011;29028;43.234;27.896;2022-11-20T05:04:18;10.65;;;3.65;;
43429;SDS011;29028;43.234;27.896;2022-11-20T05:04:39;9.82;;;3.30;;
43429;SDS011;29028;43.234;27.896;2022-11-20T05:05:00;8.60;;;3.33;;
43429;SDS011;29028;43.234;27.896;2022-11-20T05:05:21;8.25;;;3.42;;
43429;SDS011;29028;43.234;27.896;2022-11-20T05:05:42;10.20;;;3.55;;
43429;SDS011;29028;43.234;27.896;2022-11-20T05:06:04;10.10;;;3.42;;
43429;SDS011;29028;43.234;27.896;2022-11-20T05:06:26;10.40;;;3.88;;
43429;SDS011;29028;43.234;27.896;2022-11-20T05:06:47;8.68;;;3.63;;
43429;SDS011;29028;43.234;27.896;2022-11-20T05:07:09;11.30;;;3.80;;
43429;SDS011;29028;43.234;27.896;2022-11-20T05:07:31;13.23;;;4.10;;
43429;SDS011;29028;43.234;27.896;2022-11-20T05:07:52;10.32;;;3.75;;
43429;SDS011;29028;43.234;27.896;2022-11-20T05:08:12;10.90;;;3.75;;
43429;SDS011;29028;43.234;27.896;2022-11-20T05:08:34;9.75;;;3.60;;
43429;SDS011;29028;43.234;27.896;2022-11-20T05:08:55;10.07;;;3.60;;
43429;SDS011;29028;43.234;27.896;2022-11-20T05:09:16;10.55;;;3.58;;
43429;SDS011;29028;43.234;27.896;2022-11-20T05:09:37;11.07;;;3.50;;
43429;SDS011;29028;43.234;27.896;2022-11-20T05:09:59;8.48;;;3.17;;
43429;SDS011;29028;43.234;27.896;2022-11-20T05:10:19;7.35;;;3.00;;
43429;SDS011;29028;43.234;27.896;2022-11-20T05:10:40;10.88;;;3.28;;
43429;SDS011;29028;43.234;27.896;2022-11-20T05:11:01;9.43;;;3.30;;
43429;SDS011;29028;43.234;27.896;2022-11-20T05:11:23;9.73;;;3.28;;
43429;SDS011;29028;43.234;27.896;2022-11-20T05:11:45;10.40;;;3.05;;
43429;SDS011;29028;43.234;27.896;2022-11-20T05:12:07;11.07;;;3.08;;
43429;SDS011;29028;43.234;27.896;2022-11-20T05:12:28;11.88;;;3.67;;
43429;SDS011;29028;43.234;27.896;2022-11-20T05:12:49;11.07;;;3.65;;
43429;SDS011;29028;43.234;27.896;2022-11-20T05:13:10;10.38;;;3.17;;
43429;SDS011;29028;43.234;27.896;2022-11-20T05:13:32;13.00;;;3.20;;
43429;SDS011;29028;43.234;27.896;2022-11-20T05:13:53;10.70;;;3.30;;
43429;SDS011;29028;43.234;27.896;2022-11-20T05:14:14;9.63;;;3.23;;
43429;SDS011;29028;43.234;27.896;2022-11-20T05:14:34;10.20;;;3.20;;
43429;SDS011;29028;43.234;27.896;2022-11-20T05:14:56;9.00;;;3.20;;
43429;SDS011;29028;43.234;27.896;2022-11-20T05:15:17;11.57;;;3.20;;
43429;SDS011;29028;43.234;27.896;2022-11-20T05:15:38;11.05;;;3.25;;
43429;SDS011;29028;43.234;27.896;2022-11-20T05:16:02;9.90;;;3.05;;
43429;SDS011;29028;43.234;27.896;2022-11-20T05:16:24;8.68;;;3.03;;
43429;SDS011;29028;43.234;27.896;2022-11-20T05:16:46;10.75;;;3.00;;
43429;SDS011;29028;43.234;27.896;2022-11-20T05:17:10;9.90;;;2.90;;
43429;SDS011;29028;43.234;27.896;2022-11-20T05:17:32;9.43;;;3.10;;
43429;SDS011;29028;43.234;27.896;2022-11-20T05:17:54;9.48;;;3.22;;
43429;SDS011;29028;43.234;27.896;2022-11-20T05:18:15;8.98;;;2.90;;
43429;SDS011;29028;43.234;27.896;2022-11-20T05:18:36;10.52;;;3.00;;
43429;SDS011;29028;43.234;27.896;2022-11-20T05:18:57;10.55;;;3.13;;
43429;SDS011;29028;43.234;27.896;2022-11-20T05:19:18;10.88;;;3.08;;
43429;SDS011;29028;43.234;27.896;2022-11-20T05:19:40;10.55;;;3.05;;
43429;SDS011;29028;43.234;27.896;2022-11-20T05:20:00;10.40;;;3.00;;
43429;SDS011;29028;43.234;27.896;2022-11-20T05:20:21;9.25;;;2.75;;
43429;SDS011;29028;43.234;27.896;2022-11-20T05:20:42;12.13;;;3.22;;
43429;SDS011;29028;43.234;27.896;2022-11-20T05:21:03;9.52;;;2.90;;
43429;SDS011;29028;43.234;27.896;2022-11-20T05:21:25;8.68;;;2.92;;
43429;SDS011;29028;43.234;27.896;2022-11-20T05:21:47;9.38;;;3.05;;
43429;SDS011;29028;43.234;27.896;2022-11-20T05:22:08;13.07;;;3.38;;
43429;SDS011;29028;43.234;27.896;2022-11-20T05:22:29;9.67;;;3.03;;
43429;SDS011;29028;43.234;27.896;2022-11-20T05:22:50;10.32;;;3.08;;
43429;SDS011;29028;43.234;27.896;2022-11-20T05:23:11;11.88;;;3.50;;
43429;SDS011;29028;43.234;27.896;2022-11-20T05:23:32;7.75;;;3.10;;
43429;SDS011;29028;43.234;27.896;2022-11-20T05:23:54;7.50;;;2.95;;
43429;SDS011;29028;43.234;27.896;2022-11-20T05:24:15;8.57;;;2.90;;
43429;SDS011;29028;43.234;27.896;2022-11-20T05:24:37;8.68;;;3.00;;
43429;SDS011;29028;43.234;27.896;2022-11-20T05:24:57;7.70;;;3.08;;
43429;SDS011;29028;43.234;27.896;2022-11-20T05:25:18;8.27;;;3.05;;
43429;SDS011;29028;43.234;27.896;2022-11-20T05:25:39;8.38;;;2.88;;
43429;SDS011;29028;43.234;27.896;2022-11-20T05:26:00;7.97;;;2.77;;
43429;SDS011;29028;43.234;27.896;2022-11-20T05:26:22;7.30;;;3.08;;
43429;SDS011;29028;43.234;27.896;2022-11-20T05:26:43;9.73;;;3.10;;
43429;SDS011;29028;43.234;27.896;2022-11-20T05:27:04;10.75;;;2.95;;
43429;SDS011;29028;43.234;27.896;2022-11-20T05:27:25;9.55;;;3.00;;
43429;SDS011;29028;43.234;27.896;2022-11-20T05:27:47;9.55;;;2.90;;
43429;SDS011;29028;43.234;27.896;2022-11-20T05:28:08;10.80;;;3.13;;
43429;SDS011;29028;43.234;27.896;2022-11-20T05:28:29;9.60;;;3.30;;
43429;SDS011;29028;43.234;27.896;2022-11-20T05:28:51;8.27;;;2.75;;
43429;SDS011;29028;43.234;27.896;2022-11-20T05:29:12;9.65;;;2.80;;
43429;SDS011;29028;43.234;27.896;2022-11-20T05:29:34;11.70;;;3.33;;
43429;SDS011;29028;43.234;27.896;2022-11-20T05:29:55;10.63;;;3.27;;
43429;SDS011;29028;43.234;27.896;2022-11-20T05:30:16;10.45;;;3.40;;
43429;SDS011;29028;43.234;27.896;2022-11-20T05:30:37;11.02;;;3.33;;
43429;SDS011;29028;43.234;27.896;2022-11-20T05:31:03;11.00;;;2.92;;
43429;SDS011;29028;43.234;27.896;2022-11-20T05:31:26;8.55;;;2.70;;
43429;SDS011;29028;43.234;27.896;2022-11-20T05:31:47;10.60;;;3.00;;
43429;SDS011;29028;43.234;27.896;2022-11-20T05:32:08;11.27;;;3.40;;
43429;SDS011;29028;43.234;27.896;2022-11-20T05:32:31;11.73;;;3.05;;
43429;SDS011;29028;43.234;27.896;2022-11-20T05:32:52;13.05;;;3.20;;
43429;SDS011;29028;43.234;27.896;2022-11-20T05:33:13;11.10;;;3.20;;
43429;SDS011;29028;43.234;27.896;2022-11-20T05:33:35;9.85;;;3.00;;
43429;SDS011;29028;43.234;27.896;2022-11-20T05:33:56;8.85;;;2.97;;
43429;SDS011;29028;43.234;27.896;2022-11-20T05:34:18;7.53;;;2.90;;
43429;SDS011;29028;43.234;27.896;2022-11-20T05:34:39;7.13;;;2.90;;
43429;SDS011;29028;43.234;27.896;2022-11-20T05:35:00;10.48;;;3.40;;
43429;SDS011;29028;43.234;27.896;2022-11-20T05:35:21;9.25;;;3.28;;
43429;SDS011;29028;43.234;27.896;2022-11-20T05:35:42;9.55;;;2.97;;
43429;SDS011;29028;43.234;27.896;2022-11-20T05:36:04;9.52;;;3.08;;
43429;SDS011;29028;43.234;27.896;2022-11-20T05:36:25;11.35;;;3.53;;
43429;SDS011;29028;43.234;27.896;2022-11-20T05:36:46;7.63;;;3.17;;
43429;SDS011;29028;43.234;27.896;2022-11-20T05:37:07;10.05;;;3.33;;
43429;SDS011;29028;43.234;27.896;2022-11-20T05:37:28;12.10;;;3.38;;
43429;SDS011;29028;43.234;27.896;2022-11-20T05:37:49;12.15;;;3.10;;
43429;SDS011;29028;43.234;27.896;2022-11-20T05:38:10;10.37;;;3.33;;
43429;SDS011;29028;43.234;27.896;2022-11-20T05:38:31;9.48;;;3.42;;
43429;SDS011;29028;43.234;27.896;2022-11-20T05:38:53;10.48;;;3.65;;
43429;SDS011;29028;43.234;27.896;2022-11-20T05:39:14;9.25;;;3.80;;
43429;SDS011;29028;43.234;27.896;2022-11-20T05:39:35;11.98;;;4.07;;
43429;SDS011;29028;43.234;27.896;2022-11-20T05:39:55;13.00;;;4.18;;
43429;SDS011;29028;43.234;27.896;2022-11-20T05:40:17;9.00;;;3.75;;
43429;SDS011;29028;43.234;27.896;2022-11-20T05:40:38;11.27;;;3.25;;
43429;SDS011;29028;43.234;27.896;2022-11-20T05:41:03;9.63;;;3.20;;
43429;SDS011;29028;43.234;27.896;2022-11-20T05:41:24;8.35;;;3.38;;
43429;SDS011;29028;43.234;27.896;2022-11-20T05:41:45;8.25;;;3.17;;
43429;SDS011;29028;43.234;27.896;2022-11-20T05:42:29;10.93;;;4.20;;
43429;SDS011;29028;43.234;27.896;2022-11-20T05:42:50;11.32;;;4.30;;
43429;SDS011;29028;43.234;27.896;2022-11-20T05:43:11;9.73;;;3.50;;
43429;SDS011;29028;43.234;27.896;2022-11-20T05:43:32;9.83;;;3.10;;
43429;SDS011;29028;43.234;27.896;2022-11-20T05:43:55;11.75;;;3.20;;
43429;SDS011;29028;43.234;27.896;2022-11-20T05:44:17;11.77;;;3.10;;
43429;SDS011;29028;43.234;27.896;2022-11-20T05:44:38;8.03;;;3.23;;
43429;SDS011;29028;43.234;27.896;2022-11-20T05:44:59;10.02;;;3.60;;
43429;SDS011;29028;43.234;27.896;2022-11-20T05:45:23;10.05;;;3.17;;
43429;SDS011;29028;43.234;27.896;2022-11-20T05:45:51;9.55;;;3.10;;
43429;SDS011;29028;43.234;27.896;2022-11-20T05:46:13;10.52;;;2.75;;
43429;SDS011;29028;43.234;27.896;2022-11-20T05:46:35;9.55;;;2.55;;
43429;SDS011;29028;43.234;27.896;2022-11-20T05:46:56;8.38;;;2.67;;
43429;SDS011;29028;43.234;27.896;2022-11-20T05:47:17;10.27;;;3.17;;
43429;SDS011;29028;43.234;27.896;2022-11-20T05:47:39;9.57;;;3.10;;
43429;SDS011;29028;43.234;27.896;2022-11-20T05:48:00;11.38;;;3.10;;
43429;SDS011;29028;43.234;27.896;2022-11-20T05:48:21;10.20;;;3.40;;
43429;SDS011;29028;43.234;27.896;2022-11-20T05:48:43;9.18;;;3.25;;
43429;SDS011;29028;43.234;27.896;2022-11-20T05:49:05;10.18;;;3.50;;
43429;SDS011;29028;43.234;27.896;2022-11-20T05:49:26;11.43;;;3.58;;
43429;SDS011;29028;43.234;27.896;2022-11-20T05:49:46;9.93;;;3.28;;
43429;SDS011;29028;43.234;27.896;2022-11-20T05:50:08;10.52;;;3.22;;
43429;SDS011;29028;43.234;27.896;2022-11-20T05:50:29;11.50;;;3.27;;
43429;SDS011;29028;43.234;27.896;2022-11-20T05:50:50;11.70;;;3.13;;
43429;SDS011;29028;43.234;27.896;2022-11-20T05:51:12;11.07;;;3.17;;
43429;SDS011;29028;43.234;27.896;2022-11-20T05:51:34;10.98;;;3.35;;
43429;SDS011;29028;43.234;27.896;2022-11-20T05:51:56;10.30;;;3.00;;
43429;SDS011;29028;43.234;27.896;2022-11-20T05:52:17;10.17;;;3.10;;
43429;SDS011;29028;43.234;27.896;2022-11-20T05:52:38;10.73;;;3.60;;
43429;SDS011;29028;43.234;27.896;2022-11-20T05:52:59;11.40;;;2.88;;
43429;SDS011;29028;43.234;27.896;2022-11-20T05:53:20;10.13;;;2.80;;
43429;SDS011;29028;43.234;27.896;2022-11-20T05:53:42;9.15;;;3.10;;
43429;SDS011;29028;43.234;27.896;2022-11-20T05:54:03;11.15;;;3.03;;
43429;SDS011;29028;43.234;27.896;2022-11-20T05:54:24;11.90;;;3.25;;
43429;SDS011;29028;43.234;27.896;2022-11-20T05:54:45;10.65;;;3.40;;
43429;SDS011;29028;43.234;27.896;2022-11-20T05:55:07;11.15;;;3.42;;
43429;SDS011;29028;43.234;27.896;2022-11-20T05:55:29;10.13;;;2.97;;
43429;SDS011;29028;43.234;27.896;2022-11-20T05:55:55;10.80;;;2.83;;
43429;SDS011;29028;43.234;27.896;2022-11-20T05:56:17;10.90;;;2.95;;
43429;SDS011;29028;43.234;27.896;2022-11-20T05:56:39;12.93;;;3.17;;
43429;SDS011;29028;43.234;27.896;2022-11-20T05:57:02;10.35;;;2.88;;
43429;SDS011;29028;43.234;27.896;2022-11-20T05:57:22;9.48;;;3.00;;
43429;SDS011;29028;43.234;27.896;2022-11-20T05:57:43;9.53;;;3.23;;
43429;SDS011;29028;43.234;27.896;2022-11-20T05:58:04;8.18;;;2.83;;
43429;SDS011;29028;43.234;27.896;2022-11-20T05:58:26;9.50;;;3.25;;
43429;SDS011;29028;43.234;27.896;2022-11-20T05:58:47;10.20;;;3.35;;
43429;SDS011;29028;43.234;27.896;2022-11-20T05:59:09;9.68;;;3.13;;
43429;SDS011;29028;43.234;27.896;2022-11-20T05:59:30;10.20;;;3.17;;
43429;SDS011;29028;43.234;27.896;2022-11-20T05:59:52;10.68;;;3.40;;
43429;SDS011;29028;43.234;27.896;2022-11-20T06:00:13;9.57;;;3.40;;
43429;SDS011;29028;43.234;27.896;2022-11-20T06:00:34;9.43;;;3.20;;
43429;SDS011;29028;43.234;27.896;2022-11-20T06:01:02;9.38;;;3.00;;
43429;SDS011;29028;43.234;27.896;2022-11-20T06:01:25;10.32;;;3.08;;
43429;SDS011;29028;43.234;27.896;2022-11-20T06:01:46;9.75;;;3.35;;
43429;SDS011;29028;43.234;27.896;2022-11-20T06:02:07;8.57;;;3.20;;
43429;SDS011;29028;43.234;27.896;2022-11-20T06:02:27;11.85;;;3.20;;
43429;SDS011;29028;43.234;27.896;2022-11-20T06:02:51;13.13;;;3.17;;
43429;SDS011;29028;43.234;27.896;2022-11-20T06:03:11;11.13;;;3.00;;
43429;SDS011;29028;43.234;27.896;2022-11-20T06:03:32;9.87;;;3.07;;
43429;SDS011;29028;43.234;27.896;2022-11-20T06:03:53;10.20;;;3.10;;
43429;SDS011;29028;43.234;27.896;2022-11-20T06:04:15;10.30;;;3.00;;
43429;SDS011;29028;43.234;27.896;2022-11-20T06:04:36;12.52;;;3.60;;
43429;SDS011;29028;43.234;27.896;2022-11-20T06:04:57;12.95;;;3.67;;
43429;SDS011;29028;43.234;27.896;2022-11-20T06:05:18;11.37;;;3.10;;
43429;SDS011;29028;43.234;27.896;2022-11-20T06:05:39;10.52;;;2.83;;
43429;SDS011;29028;43.234;27.896;2022-11-20T06:06:00;8.95;;;2.65;;
43429;SDS011;29028;43.234;27.896;2022-11-20T06:06:22;12.18;;;2.85;;
43429;SDS011;29028;43.234;27.896;2022-11-20T06:06:45;11.65;;;2.85;;
43429;SDS011;29028;43.234;27.896;2022-11-20T06:07:06;9.07;;;2.88;;
43429;SDS011;29028;43.234;27.896;2022-11-20T06:07:26;9.53;;;3.30;;
43429;SDS011;29028;43.234;27.896;2022-11-20T06:07:48;11.27;;;3.40;;
43429;SDS011;29028;43.234;27.896;2022-11-20T06:08:09;8.80;;;3.10;;
43429;SDS011;29028;43.234;27.896;2022-11-20T06:08:30;10.02;;;3.40;;
43429;SDS011;29028;43.234;27.896;2022-11-20T06:08:51;9.70;;;3.40;;
43429;SDS011;29028;43.234;27.896;2022-11-20T06:09:13;11.73;;;3.25;;
43429;SDS011;29028;43.234;27.896;2022-11-20T06:09:34;9.38;;;3.00;;
43429;SDS011;29028;43.234;27.896;2022-11-20T06:09:55;8.80;;;3.10;;
43429;SDS011;29028;43.234;27.896;2022-11-20T06:10:16;8.88;;;3.30;;
43429;SDS011;29028;43.234;27.896;2022-11-20T06:10:37;10.45;;;2.72;;
43429;SDS011;29028;43.234;27.896;2022-11-20T06:11:02;11.20;;;2.97;;
43429;SDS011;29028;43.234;27.896;2022-11-20T06:11:23;10.63;;;2.50;;
43429;SDS011;29028;43.234;27.896;2022-11-20T06:11:45;9.15;;;2.45;;
43429;SDS011;29028;43.234;27.896;2022-11-20T06:12:06;8.27;;;2.78;;
43429;SDS011;29028;43.234;27.896;2022-11-20T06:12:27;8.80;;;2.90;;
43429;SDS011;29028;43.234;27.896;2022-11-20T06:12:48;9.20;;;2.90;;
43429;SDS011;29028;43.234;27.896;2022-11-20T06:13:09;10.70;;;2.75;;
43429;SDS011;29028;43.234;27.896;2022-11-20T06:13:31;12.13;;;3.22;;
43429;SDS011;29028;43.234;27.896;2022-11-20T06:13:52;13.15;;;3.17;;
43429;SDS011;29028;43.234;27.896;2022-11-20T06:14:13;9.70;;;3.13;;
43429;SDS011;29028;43.234;27.896;2022-11-20T06:14:34;10.65;;;3.28;;
43429;SDS011;29028;43.234;27.896;2022-11-20T06:14:56;12.80;;;3.08;;
43429;SDS011;29028;43.234;27.896;2022-11-20T06:15:17;10.73;;;3.10;;
43429;SDS011;29028;43.234;27.896;2022-11-20T06:15:38;9.95;;;3.00;;
43429;SDS011;29028;43.234;27.896;2022-11-20T06:15:59;12.00;;;3.47;;
43429;SDS011;29028;43.234;27.896;2022-11-20T06:16:20;12.48;;;3.20;;
43429;SDS011;29028;43.234;27.896;2022-11-20T06:16:41;11.30;;;3.05;;
43429;SDS011;29028;43.234;27.896;2022-11-20T06:17:02;10.13;;;3.13;;
43429;SDS011;29028;43.234;27.896;2022-11-20T06:17:23;9.35;;;2.72;;
43429;SDS011;29028;43.234;27.896;2022-11-20T06:17:45;8.45;;;2.80;;
43429;SDS011;29028;43.234;27.896;2022-11-20T06:18:07;10.47;;;2.67;;
43429;SDS011;29028;43.234;27.896;2022-11-20T06:18:30;10.57;;;2.90;;
43429;SDS011;29028;43.234;27.896;2022-11-20T06:18:51;8.63;;;2.90;;
43429;SDS011;29028;43.234;27.896;2022-11-20T06:19:13;10.10;;;3.10;;
43429;SDS011;29028;43.234;27.896;2022-11-20T06:19:35;10.60;;;3.22;;
43429;SDS011;29028;43.234;27.896;2022-11-20T06:19:55;9.68;;;2.78;;
43429;SDS011;29028;43.234;27.896;2022-11-20T06:20:16;9.05;;;2.63;;
43429;SDS011;29028;43.234;27.896;2022-11-20T06:20:38;9.48;;;3.08;;
43429;SDS011;29028;43.234;27.896;2022-11-20T06:21:00;10.32;;;3.03;;
43429;SDS011;29028;43.234;27.896;2022-11-20T06:21:22;9.57;;;3.28;;
43429;SDS011;29028;43.234;27.896;2022-11-20T06:21:43;7.95;;;3.47;;
43429;SDS011;29028;43.234;27.896;2022-11-20T06:22:05;8.95;;;3.28;;
43429;SDS011;29028;43.234;27.896;2022-11-20T06:22:26;9.95;;;3.28;;
43429;SDS011;29028;43.234;27.896;2022-11-20T06:22:47;10.70;;;3.20;;
43429;SDS011;29028;43.234;27.896;2022-11-20T06:23:08;11.30;;;3.25;;
43429;SDS011;29028;43.234;27.896;2022-11-20T06:23:30;10.50;;;3.35;;
43429;SDS011;29028;43.234;27.896;2022-11-20T06:23:51;9.23;;;3.05;;
43429;SDS011;29028;43.234;27.896;2022-11-20T06:24:13;9.25;;;3.10;;
43429;SDS011;29028;43.234;27.896;2022-11-20T06:24:34;9.30;;;3.00;;
43429;SDS011;29028;43.234;27.896;2022-11-20T06:24:56;8.98;;;2.90;;
43429;SDS011;29028;43.234;27.896;2022-11-20T06:25:16;9.55;;;3.00;;
43429;SDS011;29028;43.234;27.896;2022-11-20T06:25:37;11.88;;;3.13;;
43429;SDS011;29028;43.234;27.896;2022-11-20T06:26:00;10.65;;;3.10;;
43429;SDS011;29028;43.234;27.896;2022-11-20T06:26:22;9.63;;;2.92;;
43429;SDS011;29028;43.234;27.896;2022-11-20T06:26:45;11.02;;;3.00;;
43429;SDS011;29028;43.234;27.896;2022-11-20T06:27:06;9.52;;;2.95;;
43429;SDS011;29028;43.234;27.896;2022-11-20T06:27:27;9.67;;;2.73;;
43429;SDS011;29028;43.234;27.896;2022-11-20T06:27:47;9.77;;;2.90;;
43429;SDS011;29028;43.234;27.896;2022-11-20T06:28:09;8.98;;;3.15;;
43429;SDS011;29028;43.234;27.896;2022-11-20T06:28:30;7.53;;;2.80;;
43429;SDS011;29028;43.234;27.896;2022-11-20T06:28:52;10.38;;;3.10;;
43429;SDS011;29028;43.234;27.896;2022-11-20T06:29:13;10.90;;;2.92;;
43429;SDS011;29028;43.234;27.896;2022-11-20T06:29:35;9.98;;;2.90;;
43429;SDS011;29028;43.234;27.896;2022-11-20T06:29:56;10.00;;;3.03;;
43429;SDS011;29028;43.234;27.896;2022-11-20T06:30:17;9.88;;;3.05;;
43429;SDS011;29028;43.234;27.896;2022-11-20T06:30:37;11.13;;;3.40;;
43429;SDS011;29028;43.234;27.896;2022-11-20T06:31:06;9.90;;;3.00;;
43429;SDS011;29028;43.234;27.896;2022-11-20T06:31:28;9.65;;;2.83;;
43429;SDS011;29028;43.234;27.896;2022-11-20T06:31:49;10.45;;;3.13;;
43429;SDS011;29028;43.234;27.896;2022-11-20T06:32:10;10.80;;;3.00;;
43429;SDS011;29028;43.234;27.896;2022-11-20T06:32:32;10.93;;;2.67;;
43429;SDS011;29028;43.234;27.896;2022-11-20T06:32:53;9.00;;;2.65;;
43429;SDS011;29028;43.234;27.896;2022-11-20T06:33:15;11.57;;;2.90;;
43429;SDS011;29028;43.234;27.896;2022-11-20T06:33:37;8.90;;;2.80;;
43429;SDS011;29028;43.234;27.896;2022-11-20T06:33:58;10.50;;;3.10;;
43429;SDS011;29028;43.234;27.896;2022-11-20T06:34:19;11.50;;;3.40;;
43429;SDS011;29028;43.234;27.896;2022-11-20T06:34:40;10.95;;;3.20;;
43429;SDS011;29028;43.234;27.896;2022-11-20T06:35:01;12.20;;;3.13;;
43429;SDS011;29028;43.234;27.896;2022-11-20T06:35:22;13.18;;;4.45;;
43429;SDS011;29028;43.234;27.896;2022-11-20T06:35:43;14.27;;;6.07;;
43429;SDS011;29028;43.234;27.896;2022-11-20T06:36:04;13.88;;;5.90;;
43429;SDS011;29028;43.234;27.896;2022-11-20T06:36:25;13.50;;;4.95;;
43429;SDS011;29028;43.234;27.896;2022-11-20T06:36:48;11.10;;;4.57;;
43429;SDS011;29028;43.234;27.896;2022-11-20T06:37:09;10.52;;;5.05;;
43429;SDS011;29028;43.234;27.896;2022-11-20T06:37:29;11.98;;;5.10;;
43429;SDS011;29028;43.234;27.896;2022-11-20T06:37:50;13.60;;;5.25;;
43429;SDS011;29028;43.234;27.896;2022-11-20T06:38:12;13.30;;;5.40;;
43429;SDS011;29028;43.234;27.896;2022-11-20T06:38:33;14.02;;;5.50;;
43429;SDS011;29028;43.234;27.896;2022-11-20T06:38:54;12.85;;;5.05;;
43429;SDS011;29028;43.234;27.896;2022-11-20T06:39:15;12.95;;;4.38;;
43429;SDS011;29028;43.234;27.896;2022-11-20T06:39:38;14.52;;;5.40;;
43429;SDS011;29028;43.234;27.896;2022-11-20T06:39:59;9.95;;;3.38;;
43429;SDS011;29028;43.234;27.896;2022-11-20T06:40:20;11.05;;;3.15;;
43429;SDS011;29028;43.234;27.896;2022-11-20T06:40:41;11.75;;;3.45;;
43429;SDS011;29028;43.234;27.896;2022-11-20T06:41:03;11.95;;;3.30;;
43429;SDS011;29028;43.234;27.896;2022-11-20T06:41:24;10.10;;;3.30;;
43429;SDS011;29028;43.234;27.896;2022-11-20T06:41:45;10.70;;;3.20;;
43429;SDS011;29028;43.234;27.896;2022-11-20T06:42:06;11.35;;;3.28;;
43429;SDS011;29028;43.234;27.896;2022-11-20T06:42:28;9.55;;;2.92;;
43429;SDS011;29028;43.234;27.896;2022-11-20T06:42:49;10.57;;;2.78;;
43429;SDS011;29028;43.234;27.896;2022-11-20T06:43:10;9.00;;;2.90;;
43429;SDS011;29028;43.234;27.896;2022-11-20T06:43:31;9.40;;;3.00;;
43429;SDS011;29028;43.234;27.896;2022-11-20T06:43:52;11.77;;;4.35;;
43429;SDS011;29028;43.234;27.896;2022-11-20T06:44:14;18.20;;;8.82;;
43429;SDS011;29028;43.234;27.896;2022-11-20T06:44:35;17.43;;;7.50;;
43429;SDS011;29028;43.234;27.896;2022-11-20T06:44:56;14.77;;;4.95;;
43429;SDS011;29028;43.234;27.896;2022-11-20T06:45:17;12.05;;;3.65;;
43429;SDS011;29028;43.234;27.896;2022-11-20T06:45:39;8.68;;;3.47;;
43429;SDS011;29028;43.234;27.896;2022-11-20T06:46:01;12.38;;;3.63;;
43429;SDS011;29028;43.234;27.896;2022-11-20T06:46:22;12.43;;;3.40;;
43429;SDS011;29028;43.234;27.896;2022-11-20T06:46:42;10.98;;;3.35;;
43429;SDS011;29028;43.234;27.896;2022-11-20T06:47:04;11.93;;;3.63;;
43429;SDS011;29028;43.234;27.896;2022-11-20T06:47:26;10.88;;;3.80;;
43429;SDS011;29028;43.234;27.896;2022-11-20T06:47:47;11.68;;;3.50;;
43429;SDS011;29028;43.234;27.896;2022-11-20T06:48:08;11.32;;;3.65;;
43429;SDS011;29028;43.234;27.896;2022-11-20T06:48:31;12.25;;;3.78;;
43429;SDS011;29028;43.234;27.896;2022-11-20T06:48:52;11.52;;;3.72;;
43429;SDS011;29028;43.234;27.896;2022-11-20T06:49:13;11.75;;;3.85;;
43429;SDS011;29028;43.234;27.896;2022-11-20T06:49:34;10.15;;;4.00;;
43429;SDS011;29028;43.234;27.896;2022-11-20T06:49:57;10.35;;;4.20;;
43429;SDS011;29028;43.234;27.896;2022-11-20T06:50:19;11.60;;;3.47;;
43429;SDS011;29028;43.234;27.896;2022-11-20T06:50:40;10.65;;;3.33;;
43429;SDS011;29028;43.234;27.896;2022-11-20T06:51:02;10.63;;;3.90;;
43429;SDS011;29028;43.234;27.896;2022-11-20T06:51:24;10.82;;;3.67;;
43429;SDS011;29028;43.234;27.896;2022-11-20T06:51:46;14.73;;;3.72;;
43429;SDS011;29028;43.234;27.896;2022-11-20T06:52:07;12.07;;;3.50;;
43429;SDS011;29028;43.234;27.896;2022-11-20T06:52:28;11.10;;;3.47;;
43429;SDS011;29028;43.234;27.896;2022-11-20T06:52:49;10.47;;;3.63;;
43429;SDS011;29028;43.234;27.896;2022-11-20T06:53:17;9.95;;;3.53;;
43429;SDS011;29028;43.234;27.896;2022-11-20T06:53:38;12.18;;;3.70;;
43429;SDS011;29028;43.234;27.896;2022-11-20T06:53:59;12.38;;;3.63;;
43429;SDS011;29028;43.234;27.896;2022-11-20T06:54:22;11.73;;;3.60;;
43429;SDS011;29028;43.234;27.896;2022-11-20T06:54:43;9.77;;;3.67;;
43429;SDS011;29028;43.234;27.896;2022-11-20T06:55:04;10.43;;;3.88;;
43429;SDS011;29028;43.234;27.896;2022-11-20T06:55:25;12.13;;;3.88;;
43429;SDS011;29028;43.234;27.896;2022-11-20T06:55:47;13.48;;;3.95;;
43429;SDS011;29028;43.234;27.896;2022-11-20T06:56:09;11.02;;;3.75;;
43429;SDS011;29028;43.234;27.896;2022-11-20T06:56:30;11.95;;;3.83;;
43429;SDS011;29028;43.234;27.896;2022-11-20T06:56:51;9.60;;;3.60;;
43429;SDS011;29028;43.234;27.896;2022-11-20T06:57:12;9.52;;;3.55;;
43429;SDS011;29028;43.234;27.896;2022-11-20T06:57:34;12.57;;;3.90;;
43429;SDS011;29028;43.234;27.896;2022-11-20T06:57:55;12.85;;;3.95;;
43429;SDS011;29028;43.234;27.896;2022-11-20T06:58:16;9.77;;;3.53;;
43429;SDS011;29028;43.234;27.896;2022-11-20T06:58:38;8.88;;;3.30;;
43429;SDS011;29028;43.234;27.896;2022-11-20T06:59:03;11.55;;;3.40;;
43429;SDS011;29028;43.234;27.896;2022-11-20T06:59:24;11.95;;;3.88;;
43429;SDS011;29028;43.234;27.896;2022-11-20T06:59:45;11.48;;;3.50;;
43429;SDS011;29028;43.234;27.896;2022-11-20T07:00:06;12.30;;;3.22;;
43429;SDS011;29028;43.234;27.896;2022-11-20T07:00:29;10.00;;;3.30;;
43429;SDS011;29028;43.234;27.896;2022-11-20T07:00:50;12.40;;;3.67;;
43429;SDS011;29028;43.234;27.896;2022-11-20T07:01:12;10.57;;;3.70;;
43429;SDS011;29028;43.234;27.896;2022-11-20T07:01:34;10.60;;;3.55;;
43429;SDS011;29028;43.234;27.896;2022-11-20T07:01:56;10.70;;;3.40;;
43429;SDS011;29028;43.234;27.896;2022-11-20T07:02:17;8.68;;;3.35;;
43429;SDS011;29028;43.234;27.896;2022-11-20T07:02:38;10.95;;;3.40;;
43429;SDS011;29028;43.234;27.896;2022-11-20T07:03:04;10.95;;;3.30;;
43429;SDS011;29028;43.234;27.896;2022-11-20T07:03:26;9.20;;;3.00;;
43429;SDS011;29028;43.234;27.896;2022-11-20T07:03:49;10.95;;;3.20;;
43429;SDS011;29028;43.234;27.896;2022-11-20T07:04:11;11.55;;;3.38;;
43429;SDS011;29028;43.234;27.896;2022-11-20T07:04:33;11.35;;;3.63;;
43429;SDS011;29028;43.234;27.896;2022-11-20T07:04:55;9.15;;;3.13;;
43429;SDS011;29028;43.234;27.896;2022-11-20T07:05:16;11.57;;;3.30;;
43429;SDS011;29028;43.234;27.896;2022-11-20T07:05:39;11.95;;;3.33;;
43429;SDS011;29028;43.234;27.896;2022-11-20T07:06:01;14.32;;;3.65;;
43429;SDS011;29028;43.234;27.896;2022-11-20T07:06:24;8.93;;;3.13;;
43429;SDS011;29028;43.234;27.896;2022-11-20T07:06:45;9.88;;;3.30;;
43429;SDS011;29028;43.234;27.896;2022-11-20T07:07:06;10.13;;;3.30;;
43429;SDS011;29028;43.234;27.896;2022-11-20T07:07:27;12.25;;;4.20;;
43429;SDS011;29028;43.234;27.896;2022-11-20T07:07:48;12.60;;;4.78;;
43429;SDS011;29028;43.234;27.896;2022-11-20T07:08:11;11.32;;;4.30;;
43429;SDS011;29028;43.234;27.896;2022-11-20T07:08:32;10.73;;;3.78;;
43429;SDS011;29028;43.234;27.896;2022-11-20T07:08:59;10.73;;;3.63;;
43429;SDS011;29028;43.234;27.896;2022-11-20T07:09:23;11.25;;;3.80;;